createdAt,value
2023-05-07T00:00:44.234Z,101752.03
2023-05-07T00:03:45.922Z,101747.72
2023-05-07T00:06:47.833Z,101750.50
2023-05-07T00:09:49.352Z,101751.59
2023-05-07T00:12:51.074Z,101746.34
2023-05-07T00:15:52.716Z,101746.41
2023-05-07T00:18:54.643Z,101737.66
2023-05-07T00:21:56.945Z,101751.06
2023-05-07T00:24:58.595Z,101743.28
2023-05-07T00:28:04.638Z,101745.97
2023-05-07T00:31:06.188Z,101751.38
2023-05-07T00:34:07.733Z,101751.59
2023-05-07T00:37:09.954Z,101741.13
2023-05-07T00:40:12.057Z,101750.09
2023-05-07T00:43:13.854Z,101750.25
2023-05-07T00:46:16.864Z,101750.44
2023-05-07T00:49:19.579Z,101747.88
2023-05-07T00:52:22.754Z,101740.97
2023-05-07T00:55:24.954Z,101744.69
2023-05-07T00:58:26.553Z,101748.34
2023-05-07T01:01:28.165Z,101747.69
2023-05-07T01:04:29.715Z,101751.28
2023-05-07T01:07:31.875Z,101747.75
2023-05-07T01:10:33.713Z,101751.47
2023-05-07T01:13:37.349Z,101756.03
2023-05-07T01:16:39.032Z,101749.09
2023-05-07T01:19:40.670Z,101752.81
2023-05-07T01:22:43.989Z,101750.16
2023-05-07T01:25:55.271Z,101744.91
2023-05-07T01:28:56.819Z,101746.75
2023-05-07T01:32:00.680Z,101737.13
2023-05-07T01:35:04.302Z,101735.47
2023-05-07T01:38:07.228Z,101739.00
2023-05-07T01:41:08.810Z,101749.69
2023-05-07T01:44:13.668Z,101754.16
2023-05-07T01:47:15.585Z,101748.16
2023-05-07T01:50:19.435Z,101756.97
2023-05-07T01:53:21.010Z,101752.59
2023-05-07T01:56:22.794Z,101750.94
2023-05-07T01:59:24.426Z,101763.41
2023-05-07T02:02:26.282Z,101764.41
2023-05-07T02:05:27.982Z,101766.25
2023-05-07T02:08:29.600Z,101762.78
2023-05-07T02:11:31.177Z,101769.91
2023-05-07T02:14:32.935Z,101768.94
2023-05-07T02:17:34.951Z,101770.72
2023-05-07T02:20:36.802Z,101763.75
2023-05-07T02:23:38.406Z,101764.72
2023-05-07T02:26:41.339Z,101762.19
2023-05-07T02:29:42.963Z,101769.31
2023-05-07T02:32:44.792Z,101772.88
2023-05-07T02:35:46.409Z,101764.00
2023-05-07T02:38:48.035Z,101759.59
2023-05-07T02:41:49.589Z,101764.00
2023-05-07T02:44:51.155Z,101763.25
2023-05-07T02:47:52.791Z,101764.13
2023-05-07T02:50:54.301Z,101768.63
2023-05-07T02:53:56.109Z,101777.56
2023-05-07T02:56:57.727Z,101776.78
2023-05-07T02:59:59.390Z,101776.72
2023-05-07T03:03:01.217Z,101776.72
2023-05-07T03:06:02.896Z,101777.66
2023-05-07T03:09:04.497Z,101781.28
2023-05-07T03:12:06.347Z,101779.66
2023-05-07T03:15:09.091Z,101782.31
2023-05-07T03:18:10.804Z,101784.94
2023-05-07T03:21:12.499Z,101791.03
2023-05-07T03:24:14.050Z,101787.59
2023-05-07T03:27:15.915Z,101784.06
2023-05-07T03:30:17.496Z,101774.44
2023-05-07T03:33:19.122Z,101767.47
2023-05-07T03:36:21.409Z,101768.34
2023-05-07T03:39:22.962Z,101769.19
2023-05-07T03:42:24.648Z,101769.13
2023-05-07T03:45:26.261Z,101784.97
2023-05-07T03:48:27.792Z,101773.50
2023-05-07T03:51:29.362Z,101772.59
2023-05-07T03:54:31.353Z,101763.72
2023-05-07T03:57:32.920Z,101769.03
2023-05-07T04:00:39.132Z,101773.38
2023-05-07T04:03:40.749Z,101774.25
2023-05-07T04:06:42.526Z,101776.91
2023-05-07T04:09:44.042Z,101769.03
2023-05-07T04:12:45.676Z,101772.50
2023-05-07T04:15:47.512Z,101782.28
2023-05-07T04:18:49.116Z,101779.63
2023-05-07T04:21:50.703Z,101777.97
2023-05-07T04:24:52.461Z,101776.16
2023-05-07T04:27:55.416Z,101784.06
2023-05-07T04:30:58.803Z,101783.19
2023-05-07T04:34:00.401Z,101781.34
2023-05-07T04:37:01.968Z,101791.03
2023-05-07T04:40:04.164Z,101796.34
2023-05-07T04:43:05.767Z,101792.03
2023-05-07T04:46:07.333Z,101789.28
2023-05-07T04:49:08.883Z,101792.81
2023-05-07T04:52:10.752Z,101798.91
2023-05-07T04:55:12.363Z,101801.44
2023-05-07T04:58:14.365Z,101792.50
2023-05-07T05:01:15.988Z,101795.16
2023-05-07T05:04:17.567Z,101796.03
2023-05-07T05:07:19.113Z,101795.94
2023-05-07T05:10:22.451Z,101800.38
2023-05-07T05:13:25.577Z,101807.44
2023-05-07T05:16:27.379Z,101817.16
2023-05-07T05:19:29.009Z,101815.50
2023-05-07T05:22:32.126Z,101823.53
2023-05-07T05:25:33.676Z,101814.78
2023-05-07T05:28:35.360Z,101817.34
2023-05-07T05:31:37.440Z,101817.28
2023-05-07T05:34:39.075Z,101813.72
2023-05-07T05:37:40.632Z,101817.28
2023-05-07T05:40:42.389Z,101825.25
2023-05-07T05:43:43.926Z,101826.13
2023-05-07T05:46:45.747Z,101820.81
2023-05-07T05:49:47.326Z,101826.03
2023-05-07T05:52:49.182Z,101820.72
2023-05-07T05:55:51.048Z,101830.44
2023-05-07T05:58:52.709Z,101832.16
2023-05-07T06:01:54.384Z,101827.63
2023-05-07T06:04:56.061Z,101830.22
2023-05-07T06:07:57.659Z,101831.03
2023-05-07T06:10:59.875Z,101825.66
2023-05-07T06:14:01.434Z,101827.28
2023-05-07T06:17:03.004Z,101825.34
2023-05-07T06:20:05.023Z,101834.97
2023-05-07T06:23:06.588Z,101834.91
2023-05-07T06:26:08.352Z,101834.75
2023-05-07T06:29:09.918Z,101849.56
2023-05-07T06:32:13.379Z,101855.63
2023-05-07T06:35:14.984Z,101854.69
2023-05-07T06:38:16.589Z,101851.13
2023-05-07T06:41:18.173Z,101848.47
2023-05-07T06:44:19.685Z,101832.47
2023-05-07T06:47:21.381Z,101835.91
2023-05-07T06:50:22.990Z,101831.44
2023-05-07T06:53:25.335Z,101839.31
2023-05-07T06:56:27.006Z,101841.06
2023-05-07T06:59:28.542Z,101845.41
2023-05-07T07:02:30.244Z,101845.41
2023-05-07T07:05:31.832Z,101850.59
2023-05-07T07:08:33.467Z,101849.53
2023-05-07T07:11:35.336Z,101856.59
2023-05-07T07:14:36.974Z,101860.09
2023-05-07T07:17:38.587Z,101852.94
2023-05-07T07:20:40.326Z,101860.69
2023-05-07T07:23:41.844Z,101851.66
2023-05-07T07:26:43.763Z,101849.84
2023-05-07T07:29:45.504Z,101855.94
2023-05-07T07:32:47.127Z,101853.09
2023-05-07T07:35:48.718Z,101852.00
2023-05-07T07:38:50.347Z,101867.81
2023-05-07T07:41:51.957Z,101858.97
2023-05-07T07:44:53.596Z,101861.59
2023-05-07T07:47:55.198Z,101866.78
2023-05-07T07:50:56.814Z,101871.13
2023-05-07T07:53:58.759Z,101859.53
2023-05-07T07:57:00.690Z,101861.13
2023-05-07T08:00:02.483Z,101865.38
2023-05-07T08:03:04.681Z,101865.25
2023-05-07T08:06:06.504Z,101867.75
2023-05-07T08:09:08.033Z,101868.56
2023-05-07T08:12:09.755Z,101871.94
2023-05-07T08:15:11.515Z,101868.28
2023-05-07T08:18:13.224Z,101869.06
2023-05-07T08:21:14.918Z,101872.53
2023-05-07T08:24:16.511Z,101888.28
2023-05-07T08:27:18.024Z,101890.94
2023-05-07T08:30:19.666Z,101887.19
2023-05-07T08:33:21.605Z,101884.34
2023-05-07T08:36:23.150Z,101893.91
2023-05-07T08:39:24.885Z,101886.66
2023-05-07T08:42:29.264Z,101895.41
2023-05-07T08:45:32.601Z,101898.88
2023-05-07T08:48:34.196Z,101898.88
2023-05-07T08:51:36.958Z,101896.16
2023-05-07T08:54:39.272Z,101896.94
2023-05-07T08:57:40.909Z,101886.06
2023-05-07T09:00:43.244Z,101894.75
2023-05-07T09:03:48.047Z,101888.31
2023-05-07T09:06:49.731Z,101894.28
2023-05-07T09:09:51.298Z,101899.47
2023-05-07T09:12:52.918Z,101895.78
2023-05-07T09:15:54.658Z,101894.78
2023-05-07T09:18:59.612Z,101898.22
2023-05-07T09:22:05.703Z,101904.22
2023-05-07T09:25:08.380Z,101903.13
2023-05-07T09:28:11.569Z,101900.28
2023-05-07T09:31:13.295Z,101906.38
2023-05-07T09:34:14.884Z,101907.03
2023-05-07T09:37:16.905Z,101903.28
2023-05-07T09:40:29.528Z,101904.66
2023-05-07T09:43:35.966Z,101904.97
2023-05-07T09:46:39.501Z,101905.72
2023-05-07T09:49:43.417Z,101906.34
2023-05-07T09:52:46.026Z,101896.47
2023-05-07T09:55:48.026Z,101905.25
2023-05-07T09:58:50.750Z,101900.78
2023-05-07T10:01:54.610Z,101890.84
2023-05-07T10:04:56.821Z,101886.25
2023-05-07T10:07:59.303Z,101895.75
2023-05-07T10:11:01.283Z,101887.44
2023-05-07T10:14:09.118Z,101891.59
2023-05-07T10:17:12.958Z,101890.44
2023-05-07T10:20:14.639Z,101892.75
2023-05-07T10:23:20.661Z,101883.25
2023-05-07T10:26:24.520Z,101892.75
2023-05-07T10:29:37.455Z,101885.47
2023-05-07T10:32:52.262Z,101888.81
2023-05-07T10:35:58.854Z,101894.88
2023-05-07T10:39:00.631Z,101893.84
2023-05-07T10:42:13.007Z,101898.16
2023-05-07T10:45:16.622Z,101912.41
2023-05-07T10:48:28.611Z,101916.88
2023-05-07T10:51:33.583Z,101905.44
2023-05-07T10:54:37.657Z,101901.03
2023-05-07T10:57:39.696Z,101902.69
2023-05-07T11:00:43.287Z,101902.63
2023-05-07T11:04:16.608Z,101897.97
2023-05-07T11:07:24.881Z,101902.28
2023-05-07T11:10:48.286Z,101892.44
2023-05-07T11:13:53.141Z,101896.75
2023-05-07T11:17:04.090Z,101889.38
2023-05-07T11:20:06.317Z,101890.84
2023-05-07T11:23:07.870Z,101897.56
2023-05-07T11:26:11.279Z,101907.75
2023-05-07T11:29:14.366Z,101892.28
2023-05-07T11:32:16.397Z,101893.88
2023-05-07T11:35:18.830Z,101901.50
2023-05-07T11:38:20.854Z,101895.78
2023-05-07T11:41:23.075Z,101895.34
2023-05-07T11:44:24.747Z,101900.38
2023-05-07T11:47:26.874Z,101901.69
2023-05-07T11:50:28.491Z,101902.19
2023-05-07T11:53:38.271Z,101898.06
2023-05-07T11:56:40.133Z,101902.81
2023-05-07T11:59:42.022Z,101905.94
2023-05-07T12:02:46.530Z,101905.56
2023-05-07T12:05:49.113Z,101897.22
2023-05-07T12:08:50.759Z,101896.88
2023-05-07T12:11:53.059Z,101895.47
2023-05-07T12:14:54.621Z,101902.00
2023-05-07T12:17:56.403Z,101887.84
2023-05-07T12:20:58.699Z,101887.31
2023-05-07T12:24:00.400Z,101892.09
2023-05-07T12:27:01.986Z,101895.56
2023-05-07T12:30:03.850Z,101898.06
2023-05-07T12:33:05.568Z,101893.28
2023-05-07T12:36:10.814Z,101896.72
2023-05-07T12:39:12.810Z,101888.63
2023-05-07T12:42:20.815Z,101889.22
2023-05-07T12:45:22.888Z,101892.56
2023-05-07T12:48:27.878Z,101892.31
2023-05-07T12:51:29.552Z,101888.19
2023-05-07T12:54:36.284Z,101901.00
2023-05-07T12:57:50.108Z,101899.00
2023-05-07T13:00:52.678Z,101903.13
2023-05-07T13:03:54.435Z,101901.88
2023-05-07T13:06:56.270Z,101899.75
2023-05-07T13:09:57.824Z,101899.38
2023-05-07T13:12:59.358Z,101897.97
2023-05-07T13:16:01.764Z,101910.00
2023-05-07T13:19:03.331Z,101901.38
2023-05-07T13:22:05.183Z,101903.50
2023-05-07T13:25:07.636Z,101904.56
2023-05-07T13:28:11.269Z,101898.47
2023-05-07T13:31:13.256Z,101883.75
2023-05-07T13:34:14.859Z,101886.69
2023-05-07T13:37:16.426Z,101892.28
2023-05-07T13:40:17.971Z,101878.59
2023-05-07T13:43:20.287Z,101879.13
2023-05-07T13:46:23.086Z,101884.94
2023-05-07T13:49:25.144Z,101882.63
2023-05-07T13:52:26.936Z,101879.97
2023-05-07T13:55:30.355Z,101875.94
2023-05-07T13:58:31.983Z,101867.38
2023-05-07T14:01:33.765Z,101873.06
2023-05-07T14:04:35.934Z,101875.34
2023-05-07T14:07:37.603Z,101865.47
2023-05-07T14:10:39.136Z,101875.44
2023-05-07T14:13:40.736Z,101863.00
2023-05-07T14:16:42.305Z,101862.56
2023-05-07T14:19:44.558Z,101852.16
2023-05-07T14:22:46.392Z,101867.72
2023-05-07T14:25:48.781Z,101854.09
2023-05-07T14:28:50.410Z,101861.63
2023-05-07T14:31:52.003Z,101859.16
2023-05-07T14:34:53.543Z,101860.84
2023-05-07T14:37:55.126Z,101852.72
2023-05-07T14:40:57.293Z,101851.84
2023-05-07T14:43:59.967Z,101858.69
2023-05-07T14:47:02.676Z,101870.84
2023-05-07T14:50:04.606Z,101861.84
2023-05-07T14:53:06.157Z,101871.38
2023-05-07T14:56:07.832Z,101880.41
2023-05-07T14:59:10.158Z,101866.44
2023-05-07T15:02:13.013Z,101867.72
2023-05-07T15:05:15.735Z,101869.66
2023-05-07T15:08:17.425Z,101891.97
2023-05-07T15:11:18.997Z,101877.94
2023-05-07T15:14:22.768Z,101898.53
2023-05-07T15:17:24.433Z,101890.78
2023-05-07T15:20:26.028Z,101883.91
2023-05-07T15:23:27.614Z,101891.19
2023-05-07T15:26:29.158Z,101887.69
2023-05-07T15:29:30.955Z,101884.69
2023-05-07T15:32:32.596Z,101888.88
2023-05-07T15:35:34.245Z,101891.22
2023-05-07T15:38:35.811Z,101899.19
2023-05-07T15:41:38.105Z,101892.75
2023-05-07T15:44:40.531Z,101896.06
2023-05-07T15:47:42.172Z,101888.66
2023-05-07T15:50:43.821Z,101899.41
2023-05-07T15:53:45.856Z,101897.56
2023-05-07T15:56:47.980Z,101899.28
2023-05-07T15:59:49.595Z,101909.91
2023-05-07T16:02:51.560Z,101904.84
2023-05-07T16:05:53.881Z,101905.84
2023-05-07T16:08:55.486Z,101909.69
2023-05-07T16:11:57.077Z,101914.50
2023-05-07T16:14:58.662Z,101919.13
2023-05-07T16:18:00.290Z,101923.94
2023-05-07T16:21:01.978Z,101906.34
2023-05-07T16:24:03.829Z,101908.28
2023-05-07T16:27:06.610Z,101905.59
2023-05-07T16:30:08.993Z,101898.72
2023-05-07T16:33:10.698Z,101904.94
2023-05-07T16:36:12.307Z,101894.53
2023-05-07T16:39:14.074Z,101900.97
2023-05-07T16:42:15.900Z,101902.78
2023-05-07T16:45:19.235Z,101902.69
2023-05-07T16:48:21.293Z,101909.75
2023-05-07T16:51:24.703Z,101908.06
2023-05-07T16:54:26.265Z,101907.19
2023-05-07T16:57:29.328Z,101911.03
2023-05-07T17:00:42.114Z,101910.19
2023-05-07T17:03:51.440Z,101912.00
2023-05-07T17:06:53.251Z,101894.31
2023-05-07T17:09:54.908Z,101899.75
2023-05-07T17:12:56.554Z,101890.97
2023-05-07T17:15:58.126Z,101898.25
2023-05-07T17:18:59.711Z,101897.47
2023-05-07T17:22:01.271Z,101900.22
2023-05-07T17:25:04.382Z,101895.19
2023-05-07T17:28:06.096Z,101900.88
2023-05-07T17:31:07.751Z,101905.59
2023-05-07T17:34:09.463Z,101909.34
2023-05-07T17:37:11.073Z,101909.41
2023-05-07T17:40:13.029Z,101913.84
2023-05-07T17:43:15.748Z,101914.03
2023-05-07T17:46:18.254Z,101912.41
2023-05-07T17:49:19.953Z,101920.66
2023-05-07T17:52:21.482Z,101922.69
2023-05-07T17:55:23.144Z,101920.28
2023-05-07T17:58:26.619Z,101933.81
2023-05-07T18:01:28.210Z,101925.19
2023-05-07T18:04:29.757Z,101935.34
2023-05-07T18:07:31.382Z,101938.34
2023-05-07T18:10:33.185Z,101929.63
2023-05-07T18:13:34.693Z,101936.91
2023-05-07T18:16:36.350Z,101937.88
2023-05-07T18:19:37.968Z,101939.78
2023-05-07T18:22:39.666Z,101936.47
2023-05-07T18:25:41.219Z,101938.47
2023-05-07T18:28:42.733Z,101939.75
2023-05-07T18:31:44.386Z,101940.97
2023-05-07T18:34:45.999Z,101944.78
2023-05-07T18:37:47.722Z,101947.69
2023-05-07T18:40:49.404Z,101955.03
2023-05-07T18:43:51.199Z,101962.41
2023-05-07T18:46:53.255Z,101960.94
2023-05-07T18:49:54.891Z,101966.56
2023-05-07T18:52:56.688Z,101963.25
2023-05-07T18:55:58.221Z,101969.81
2023-05-07T18:58:59.882Z,101972.91
2023-05-07T19:02:01.440Z,101961.69
2023-05-07T19:05:03.060Z,101969.16
2023-05-07T19:08:04.716Z,101970.81
2023-05-07T19:11:06.297Z,101985.59
2023-05-07T19:14:08.033Z,101980.72
2023-05-07T19:17:09.650Z,101986.41
2023-05-07T19:20:11.757Z,101986.81
2023-05-07T19:23:13.621Z,101992.50
2023-05-07T19:26:15.300Z,101993.66
2023-05-07T19:29:18.390Z,101998.31
2023-05-07T19:32:21.543Z,102001.38
2023-05-07T19:35:23.456Z,102005.38
2023-05-07T19:38:28.950Z,102008.31
2023-05-07T19:41:31.004Z,102005.22
2023-05-07T19:44:33.933Z,102009.97
2023-05-07T19:47:36.904Z,102009.56
2023-05-07T19:50:39.803Z,102014.28
2023-05-07T19:53:43.726Z,102016.44
2023-05-07T19:56:45.761Z,102015.91
2023-05-07T19:59:47.342Z,102014.47
2023-05-07T20:02:51.313Z,102016.44
2023-05-07T20:05:53.145Z,102018.53
2023-05-07T20:08:54.671Z,102026.69
2023-05-07T20:11:56.902Z,102034.03
2023-05-07T20:14:58.651Z,102030.66
2023-05-07T20:18:00.309Z,102028.09
2023-05-07T20:21:01.945Z,102034.53
2023-05-07T20:24:03.699Z,102037.47
2023-05-07T20:27:05.895Z,102035.56
2023-05-07T20:30:08.410Z,102043.78
2023-05-07T20:33:10.079Z,102036.84
2023-05-07T20:36:12.707Z,102029.00
2023-05-07T20:39:16.410Z,102040.72
2023-05-07T20:42:18.981Z,102047.97
2023-05-07T20:45:20.841Z,102042.78
2023-05-07T20:48:23.755Z,102043.75
2023-05-07T20:51:25.309Z,102052.78
2023-05-07T20:54:28.262Z,102051.22
2023-05-07T20:57:29.933Z,102053.09
2023-05-07T21:00:31.538Z,102045.34
2023-05-07T21:03:33.063Z,102056.38
2023-05-07T21:06:34.658Z,102049.53
2023-05-07T21:09:37.447Z,102063.13
2023-05-07T21:12:39.887Z,102061.66
2023-05-07T21:15:44.996Z,102072.59
2023-05-07T21:18:46.548Z,102061.38
2023-05-07T21:21:48.475Z,102082.09
2023-05-07T21:24:50.050Z,102075.38
2023-05-07T21:27:51.707Z,102080.94
2023-05-07T21:30:53.266Z,102086.56
2023-05-07T21:33:56.435Z,102088.47
2023-05-07T21:36:58.634Z,102085.94
2023-05-07T21:40:00.360Z,102091.91
2023-05-07T21:43:01.913Z,102091.03
2023-05-07T21:46:10.173Z,102085.16
2023-05-07T21:49:11.978Z,102099.91
2023-05-07T21:52:14.963Z,102094.03
2023-05-07T21:55:19.455Z,102095.19
2023-05-07T21:58:21.046Z,102088.34
2023-05-07T22:01:22.725Z,102096.66
2023-05-07T22:04:24.287Z,102094.38
2023-05-07T22:07:25.840Z,102098.09
2023-05-07T22:10:27.453Z,102096.53
2023-05-07T22:13:29.134Z,102094.16
2023-05-07T22:16:30.860Z,102095.44
2023-05-07T22:19:32.509Z,102092.25
2023-05-07T22:22:45.095Z,102099.47
2023-05-07T22:25:46.774Z,102098.91
2023-05-07T22:28:48.354Z,102106.34
2023-05-07T22:31:50.648Z,102113.75
2023-05-07T22:34:52.233Z,102110.34
2023-05-07T22:37:53.745Z,102115.03
2023-05-07T22:40:55.304Z,102119.69
2023-05-07T22:43:56.862Z,102118.09
2023-05-07T22:46:58.401Z,102117.44
2023-05-07T22:49:59.970Z,102125.50
2023-05-07T22:53:01.573Z,102119.53
2023-05-07T22:56:06.144Z,102126.84
2023-05-07T22:59:07.728Z,102119.09
2023-05-07T23:02:09.365Z,102123.66
2023-05-07T23:05:10.963Z,102121.22
2023-05-07T23:08:12.837Z,102117.91
2023-05-07T23:11:14.403Z,102118.19
2023-05-07T23:14:15.974Z,102129.88
2023-05-07T23:17:18.116Z,102127.34
2023-05-07T23:20:19.822Z,102129.31
2023-05-07T23:23:21.722Z,102131.22
2023-05-07T23:26:23.598Z,102126.97
2023-05-07T23:29:25.124Z,102123.53
2023-05-07T23:32:26.655Z,102125.38
2023-05-07T23:35:28.218Z,102121.97
2023-05-07T23:38:30.369Z,102125.63
2023-05-07T23:41:32.165Z,102123.06
2023-05-07T23:44:33.774Z,102119.72
2023-05-07T23:47:35.666Z,102118.97
2023-05-07T23:50:37.282Z,102114.66
2023-05-07T23:53:38.922Z,102122.75
2023-05-07T23:56:40.625Z,102124.63
2023-05-07T23:59:42.487Z,102118.56
